Minburn, Iowa
Current Conditions -  °F | °C
As of 11:55 PM on Tuesday 21 Oct 2014 (Local Time) from KPRO Reporting Station
Clear Clear  
Wind Chill: 42°   Ceiling: Unl
Heat Index: 45°   Visibility: 10mi
Dew Point: 41°   Wind: 6mph
Humidity: 88%   Direction: 110°ESE
Pressure: 30.16"   Gusts: NA
Location:  41.76°N, 94.03°W
Report Text: KPRO 220455Z AUTO 11005KT 10SM CLR 07/05 A3016 RMK AO2 T00710052
Loading
Personal Weather Stations






























Interactive Weather Map
Tropical Storm Tracking
New forecast layout! Learn more

10-Day Weather Forecast

Advertisements
Track Severe Weather on mobile